Time,TemperatureF,DewpointF,PressureIn,WindDirection,WindDirectionDegrees,WindSpeedMPH,WindSpeedGustMPH,Humidity,HourlyPrecipIn,Conditions,Clouds,dailyrainin,SoftwareType,DateUTC
2015-03-26 00:01:00,51.5,43.8,30.01,North,0,0.0,0.0,75,0.00,,,0.00,WUHU216HW,2015-03-26 04:01:00,
2015-03-26 00:06:00,51.1,43.5,30.00,North,0,0.0,0.0,75,0.00,,,0.00,WUHU216HW,2015-03-26 04:06:00,
2015-03-26 00:11:00,50.9,43.7,30.00,North,0,0.0,0.0,76,0.00,,,0.00,WUHU216HW,2015-03-26 04:11:00,
2015-03-26 00:16:00,50.9,43.7,29.99,North,0,0.0,0.0,76,0.00,,,0.00,WUHU216HW,2015-03-26 04:16:00,
2015-03-26 00:21:00,50.8,43.5,29.99,North,0,0.0,0.0,76,0.00,,,0.00,WUHU216HW,2015-03-26 04:21:00,
2015-03-26 00:26:00,50.8,43.8,29.99,North,0,0.0,0.0,77,0.00,,,0.00,WUHU216HW,2015-03-26 04:26:00,
2015-03-26 00:31:00,50.9,44.3,29.99,North,0,0.0,0.0,78,0.00,,,0.00,WUHU216HW,2015-03-26 04:31:00,
2015-03-26 00:36:00,51.5,44.8,29.99,North,0,0.0,0.0,78,0.00,,,0.00,WUHU216HW,2015-03-26 04:36:00,
2015-03-26 00:41:00,51.7,45.0,29.98,North,0,0.0,0.0,78,0.00,,,0.00,WUHU216HW,2015-03-26 04:41:00,
2015-03-26 00:46:00,51.8,45.2,29.98,North,0,0.0,0.0,78,0.00,,,0.00,WUHU216HW,2015-03-26 04:46:00,
2015-03-26 00:51:00,51.8,45.2,29.99,North,0,0.0,0.0,78,0.00,,,0.00,WUHU216HW,2015-03-26 04:51:00,
2015-03-26 00:56:00,51.8,44.9,29.98,North,0,0.0,0.0,77,0.00,,,0.00,WUHU216HW,2015-03-26 04:56:00,
2015-03-26 01:01:00,52.0,45.1,29.98,North,0,0.0,0.0,77,0.00,,,0.00,WUHU216HW,2015-03-26 05:01:00,
2015-03-26 01:06:00,52.2,45.2,29.98,North,0,0.0,0.0,77,0.00,,,0.00,WUHU216HW,2015-03-26 05:06:00,
2015-03-26 01:11:00,52.0,45.1,29.98,North,0,0.0,0.0,77,0.00,,,0.00,WUHU216HW,2015-03-26 05:11:00,
2015-03-26 01:16:00,51.5,44.6,29.99,North,0,0.0,0.0,77,0.00,,,0.00,WUHU216HW,2015-03-26 05:16:00,
2015-03-26 01:21:00,51.5,44.6,29.98,North,0,0.0,0.0,77,0.00,,,0.00,WUHU216HW,2015-03-26 05:21:00,
2015-03-26 01:26:00,51.3,44.4,29.99,North,0,0.0,0.0,77,0.00,,,0.00,WUHU216HW,2015-03-26 05:26:00,
2015-03-26 01:31:00,50.9,44.0,29.99,North,0,0.0,0.0,77,0.00,,,0.00,WUHU216HW,2015-03-26 05:31:00,
2015-03-26 01:36:00,50.4,43.5,29.98,North,0,0.0,0.0,77,0.00,,,0.00,WUHU216HW,2015-03-26 05:36:00,
2015-03-26 01:41:00,50.2,43.6,29.99,North,0,0.0,0.0,78,0.00,,,0.00,WUHU216HW,2015-03-26 05:41:00,
2015-03-26 01:46:00,50.0,43.4,29.99,North,0,0.0,0.0,78,0.00,,,0.00,WUHU216HW,2015-03-26 05:46:00,
2015-03-26 01:51:00,49.9,43.9,29.98,North,0,0.0,0.0,80,0.00,,,0.00,WUHU216HW,2015-03-26 05:51:00,
2015-03-26 01:56:00,49.7,43.4,29.98,North,0,0.0,0.0,79,0.00,,,0.00,WUHU216HW,2015-03-26 05:56:00,
2015-03-26 02:01:00,49.5,43.2,29.98,North,0,0.0,0.0,79,0.00,,,0.00,WUHU216HW,2015-03-26 06:01:00,
2015-03-26 02:06:00,49.3,43.0,29.98,North,0,0.0,0.0,79,0.00,,,0.00,WUHU216HW,2015-03-26 06:06:00,
2015-03-26 02:11:00,49.1,42.8,29.99,North,0,0.0,0.0,79,0.00,,,0.00,WUHU216HW,2015-03-26 06:11:00,
2015-03-26 02:16:00,48.8,43.2,29.99,North,0,0.0,0.0,81,0.00,,,0.00,WUHU216HW,2015-03-26 06:16:00,
2015-03-26 02:21:00,49.0,43.7,29.99,North,0,0.0,0.0,82,0.00,,,0.00,WUHU216HW,2015-03-26 06:21:00,
2015-03-26 02:26:00,48.8,43.2,29.98,North,0,0.0,0.0,81,0.00,,,0.00,WUHU216HW,2015-03-26 06:26:00,
2015-03-26 02:31:00,48.6,43.0,29.98,North,0,0.0,0.0,81,0.00,,,0.00,WUHU216HW,2015-03-26 06:31:00,
2015-03-26 02:36:00,48.1,42.5,29.98,North,0,0.0,0.0,81,0.00,,,0.00,WUHU216HW,2015-03-26 06:36:00,
2015-03-26 02:41:00,47.9,41.9,29.98,North,0,0.0,0.0,80,0.00,,,0.00,WUHU216HW,2015-03-26 06:41:00,
2015-03-26 02:46:00,47.7,41.9,29.98,North,0,0.0,0.0,80,0.00,,,0.00,WUHU216HW,2015-03-26 06:46:00,
2015-03-26 02:51:00,47.9,42.3,29.98,North,0,0.0,0.0,81,0.00,,,0.00,WUHU216HW,2015-03-26 06:51:00,
2015-03-26 02:56:00,47.9,42.3,29.97,North,0,0.0,0.0,81,0.00,,,0.00,WUHU216HW,2015-03-26 06:56:00,
2015-03-26 03:01:00,47.7,42.1,29.97,North,0,0.0,0.0,81,0.00,,,0.00,WUHU216HW,2015-03-26 07:01:00,
2015-03-26 03:06:00,47.5,41.9,29.97,North,0,0.0,0.0,81,0.00,,,0.00,WUHU216HW,2015-03-26 07:06:00,
2015-03-26 03:11:00,47.5,42.3,29.97,North,0,0.0,0.0,82,0.00,,,0.00,WUHU216HW,2015-03-26 07:11:00,
2015-03-26 03:16:00,47.3,43.0,29.97,North,0,0.0,0.0,85,0.00,,,0.00,WUHU216HW,2015-03-26 07:16:00,
2015-03-26 03:21:00,47.3,42.5,29.97,North,0,0.0,0.0,83,0.00,,,0.00,WUHU216HW,2015-03-26 07:21:00,
2015-03-26 03:26:00,47.2,42.6,29.96,North,0,0.0,0.0,84,0.00,,,0.00,WUHU216HW,2015-03-26 07:26:00,
2015-03-26 03:31:00,47.2,42.3,29.96,North,0,0.0,0.0,83,0.00,,,0.00,WUHU216HW,2015-03-26 07:31:00,
2015-03-26 03:36:00,47.2,42.6,29.96,North,0,0.0,0.0,84,0.00,,,0.00,WUHU216HW,2015-03-26 07:36:00,
2015-03-26 03:41:00,47.2,42.6,29.95,North,0,0.0,0.0,84,0.00,,,0.00,WUHU216HW,2015-03-26 07:41:00,
2015-03-26 03:46:00,47.2,42.6,29.95,North,0,0.0,0.0,84,0.00,,,0.00,WUHU216HW,2015-03-26 07:46:00,
2015-03-26 03:51:00,47.2,42.3,29.94,North,0,0.0,0.0,83,0.00,,,0.00,WUHU216HW,2015-03-26 07:51:00,
2015-03-26 03:56:00,47.2,42.6,29.94,North,0,0.0,0.0,84,0.00,,,0.00,WUHU216HW,2015-03-26 07:56:00,
2015-03-26 04:01:00,47.0,42.4,29.93,North,0,0.0,0.0,84,0.00,,,0.00,WUHU216HW,2015-03-26 08:01:00,
2015-03-26 04:06:00,46.8,42.2,29.93,North,0,0.0,0.0,84,0.00,,,0.00,WUHU216HW,2015-03-26 08:06:00,
2015-03-26 04:11:00,46.4,41.6,29.93,North,0,0.0,0.0,83,0.00,,,0.00,WUHU216HW,2015-03-26 08:11:00,
2015-03-26 04:16:00,46.3,41.4,29.93,North,0,0.0,0.0,83,0.00,,,0.00,WUHU216HW,2015-03-26 08:16:00,
2015-03-26 04:21:00,46.3,41.4,29.93,North,0,0.0,0.0,83,0.00,,,0.00,WUHU216HW,2015-03-26 08:21:00,
2015-03-26 04:26:00,46.3,41.8,29.93,North,0,0.0,0.0,84,0.00,,,0.00,WUHU216HW,2015-03-26 08:26:00,
2015-03-26 04:31:00,46.3,41.8,29.93,North,0,0.0,0.0,84,0.00,,,0.00,WUHU216HW,2015-03-26 08:31:00,
2015-03-26 04:36:00,46.4,42.2,29.93,North,0,0.0,0.0,85,0.00,,,0.00,WUHU216HW,2015-03-26 08:36:00,
2015-03-26 04:41:00,46.8,42.6,29.93,North,0,0.0,0.0,85,0.00,,,0.00,WUHU216HW,2015-03-26 08:41:00,
2015-03-26 04:46:00,47.0,42.8,29.92,North,0,0.0,0.0,85,0.00,,,0.00,WUHU216HW,2015-03-26 08:46:00,
2015-03-26 04:51:00,47.0,42.8,29.92,North,0,0.0,0.0,85,0.00,,,0.00,WUHU216HW,2015-03-26 08:51:00,
2015-03-26 04:56:00,47.0,42.8,29.91,North,0,0.0,0.0,85,0.00,,,0.00,WUHU216HW,2015-03-26 08:56:00,
2015-03-26 05:01:00,46.8,42.6,29.91,North,0,0.0,0.0,85,0.00,,,0.00,WUHU216HW,2015-03-26 09:01:00,
2015-03-26 05:06:00,47.0,42.8,29.91,North,0,0.0,0.0,85,0.00,,,0.00,WUHU216HW,2015-03-26 09:06:00,
2015-03-26 05:11:00,47.0,42.8,29.92,North,0,0.0,0.0,85,0.00,,,0.00,WUHU216HW,2015-03-26 09:11:00,
2015-03-26 05:16:00,47.2,42.9,29.91,North,0,0.0,0.0,85,0.00,,,0.00,WUHU216HW,2015-03-26 09:16:00,
2015-03-26 05:21:00,47.2,43.2,29.89,North,0,0.0,0.0,86,0.00,,,0.00,WUHU216HW,2015-03-26 09:21:00,
2015-03-26 05:26:00,47.2,43.2,29.89,North,0,0.0,0.0,86,0.00,,,0.00,WUHU216HW,2015-03-26 09:26:00,
2015-03-26 05:31:00,46.8,42.6,29.88,North,0,0.0,0.0,85,0.00,,,0.00,WUHU216HW,2015-03-26 09:31:00,
2015-03-26 05:36:00,46.4,42.2,29.87,North,0,0.0,0.0,85,0.00,,,0.00,WUHU216HW,2015-03-26 09:36:00,
2015-03-26 05:41:00,46.1,41.9,29.88,North,0,0.0,0.0,85,0.00,,,0.00,WUHU216HW,2015-03-26 09:41:00,
2015-03-26 05:46:00,45.7,41.5,29.88,North,0,0.0,0.0,85,0.00,,,0.00,WUHU216HW,2015-03-26 09:46:00,
2015-03-26 05:51:00,45.7,41.5,29.87,North,0,0.0,0.0,85,0.00,,,0.00,WUHU216HW,2015-03-26 09:51:00,
2015-03-26 05:56:00,45.7,41.5,29.87,North,0,0.0,0.0,85,0.00,,,0.00,WUHU216HW,2015-03-26 09:56:00,
2015-03-26 06:01:00,45.7,41.8,29.87,North,0,0.0,0.0,86,0.00,,,0.00,WUHU216HW,2015-03-26 10:01:00,
2015-03-26 06:05:00,45.9,42.3,29.87,North,0,0.0,0.0,87,0.00,,,0.00,WUHU216HW,2015-03-26 10:05:00,
2015-03-26 06:10:00,46.1,42.5,29.86,North,0,0.0,0.0,87,0.00,,,0.00,WUHU216HW,2015-03-26 10:10:00,
2015-03-26 06:15:00,46.1,42.5,29.86,North,0,0.0,0.0,87,0.00,,,0.00,WUHU216HW,2015-03-26 10:15:00,
2015-03-26 06:20:00,46.1,42.5,29.86,North,0,0.0,0.0,87,0.00,,,0.00,WUHU216HW,2015-03-26 10:20:00,
2015-03-26 06:25:00,46.1,42.5,29.85,North,0,0.0,0.0,87,0.00,,,0.00,WUHU216HW,2015-03-26 10:25:00,
2015-03-26 06:30:00,46.1,42.5,29.84,North,0,0.0,0.0,87,0.00,,,0.00,WUHU216HW,2015-03-26 10:30:00,
2015-03-26 06:35:00,45.7,42.1,29.84,North,0,0.0,0.0,87,0.00,,,0.00,WUHU216HW,2015-03-26 10:35:00,
2015-03-26 06:40:00,45.4,41.8,29.84,North,0,0.0,0.0,87,0.00,,,0.00,WUHU216HW,2015-03-26 10:40:00,
2015-03-26 06:45:00,45.2,41.6,29.84,North,0,0.0,0.0,87,0.00,,,0.00,WUHU216HW,2015-03-26 10:45:00,
2015-03-26 06:50:00,45.2,41.6,29.84,North,0,0.0,0.0,87,0.00,,,0.00,WUHU216HW,2015-03-26 10:50:00,
2015-03-26 06:55:00,45.2,41.6,29.84,North,0,0.0,0.0,87,0.00,,,0.00,WUHU216HW,2015-03-26 10:55:00,
2015-03-26 07:00:00,45.4,41.8,29.84,North,0,0.0,0.0,87,0.00,,,0.00,WUHU216HW,2015-03-26 11:00:00,
2015-03-26 07:05:00,45.7,42.8,29.83,North,0,0.0,0.0,89,0.00,,,0.00,WUHU216HW,2015-03-26 11:05:00,
2015-03-26 07:10:00,46.1,42.8,29.84,North,0,0.0,0.0,88,0.00,,,0.00,WUHU216HW,2015-03-26 11:10:00,
2015-03-26 07:15:00,46.3,42.9,29.82,North,0,0.0,0.0,88,0.00,,,0.00,WUHU216HW,2015-03-26 11:15:00,
2015-03-26 07:20:00,46.3,43.3,29.81,North,0,0.0,0.0,89,0.00,,,0.00,WUHU216HW,2015-03-26 11:20:00,
2015-03-26 07:25:00,46.4,43.1,29.82,North,0,0.0,0.0,88,0.00,,,0.00,WUHU216HW,2015-03-26 11:25:00,
2015-03-26 07:30:00,46.3,42.9,29.82,North,0,0.0,0.0,88,0.00,,,0.00,WUHU216HW,2015-03-26 11:30:00,
2015-03-26 07:35:00,46.1,42.8,29.82,North,0,0.0,0.0,88,0.00,,,0.00,WUHU216HW,2015-03-26 11:35:00,
2015-03-26 07:40:00,46.1,42.8,29.82,North,0,0.0,0.0,88,0.00,,,0.00,WUHU216HW,2015-03-26 11:40:00,
2015-03-26 07:45:00,46.4,43.1,29.81,North,0,0.0,0.0,88,0.00,,,0.00,WUHU216HW,2015-03-26 11:45:00,
2015-03-26 07:50:00,46.6,43.7,29.81,North,0,0.0,0.0,89,0.00,,,0.00,WUHU216HW,2015-03-26 11:50:00,
2015-03-26 07:55:00,47.2,44.5,29.81,North,0,0.0,0.0,90,0.00,,,0.00,WUHU216HW,2015-03-26 11:55:00,
2015-03-26 08:00:00,47.5,44.5,29.81,North,0,0.0,0.0,89,0.00,,,0.00,WUHU216HW,2015-03-26 12:00:00,
2015-03-26 08:05:00,47.9,44.6,29.82,North,0,0.0,0.0,88,0.00,,,0.00,WUHU216HW,2015-03-26 12:05:00,
2015-03-26 08:10:00,47.9,44.6,29.81,North,0,0.0,0.0,88,0.00,,,0.00,WUHU216HW,2015-03-26 12:10:00,
2015-03-26 08:15:00,47.9,44.6,29.80,North,0,0.0,0.0,88,0.00,,,0.00,WUHU216HW,2015-03-26 12:15:00,
2015-03-26 08:20:00,47.9,44.6,29.80,North,0,0.0,0.0,88,0.00,,,0.00,WUHU216HW,2015-03-26 12:20:00,
2015-03-26 08:25:00,48.1,44.7,29.79,North,0,0.0,0.0,88,0.00,,,0.00,WUHU216HW,2015-03-26 12:25:00,
2015-03-26 08:30:00,48.4,45.1,29.80,North,0,0.0,0.0,88,0.00,,,0.00,WUHU216HW,2015-03-26 12:30:00,
2015-03-26 08:35:00,48.4,45.1,29.80,North,0,0.0,0.0,88,0.00,,,0.00,WUHU216HW,2015-03-26 12:35:00,
2015-03-26 08:40:00,48.6,45.2,29.80,North,0,0.0,0.0,88,0.00,,,0.00,WUHU216HW,2015-03-26 12:40:00,
2015-03-26 08:45:00,48.6,44.9,29.79,North,0,0.0,0.0,87,0.00,,,0.00,WUHU216HW,2015-03-26 12:45:00,
2015-03-26 08:50:00,48.6,44.9,29.81,North,0,0.0,0.0,87,0.00,,,0.00,WUHU216HW,2015-03-26 12:50:00,
2015-03-26 08:55:00,48.6,44.9,29.81,North,0,0.0,0.0,87,0.00,,,0.00,WUHU216HW,2015-03-26 12:55:00,
2015-03-26 09:00:00,48.2,44.6,29.81,North,0,0.0,0.0,87,0.00,,,0.00,WUHU216HW,2015-03-26 13:00:00,
2015-03-26 09:05:00,48.4,44.7,29.80,North,0,0.0,0.0,87,0.00,,,0.00,WUHU216HW,2015-03-26 13:05:00,
2015-03-26 09:10:00,48.6,44.9,29.80,North,0,0.0,0.0,87,0.00,,,0.00,WUHU216HW,2015-03-26 13:10:00,
2015-03-26 09:15:00,48.6,44.9,29.80,North,0,0.0,0.0,87,0.00,,,0.00,WUHU216HW,2015-03-26 13:15:00,
2015-03-26 09:20:00,48.6,44.9,29.80,North,0,0.0,0.0,87,0.00,,,0.00,WUHU216HW,2015-03-26 13:20:00,
2015-03-26 09:25:00,48.6,44.9,29.80,North,0,0.0,0.0,87,0.00,,,0.00,WUHU216HW,2015-03-26 13:25:00,
2015-03-26 09:30:00,48.4,45.1,29.81,North,0,0.0,0.0,88,0.00,,,0.00,WUHU216HW,2015-03-26 13:30:00,
2015-03-26 09:35:00,48.2,44.9,29.80,North,0,0.0,0.0,88,0.00,,,0.00,WUHU216HW,2015-03-26 13:35:00,
2015-03-26 09:40:00,48.4,45.1,29.80,North,0,0.0,0.0,88,0.00,,,0.00,WUHU216HW,2015-03-26 13:40:00,
2015-03-26 09:45:00,48.6,45.2,29.80,North,0,0.0,0.0,88,0.00,,,0.00,WUHU216HW,2015-03-26 13:45:00,
2015-03-26 09:50:00,49.0,45.5,29.79,North,0,0.0,0.0,88,0.00,,,0.00,WUHU216HW,2015-03-26 13:50:00,
2015-03-26 09:55:00,49.3,45.5,29.79,North,0,0.0,0.0,87,0.00,,,0.00,WUHU216HW,2015-03-26 13:55:00,
2015-03-26 10:00:00,49.5,45.5,29.78,North,0,0.0,0.0,86,0.00,,,0.00,WUHU216HW,2015-03-26 14:00:00,
2015-03-26 10:05:00,49.7,45.6,29.78,North,0,0.0,0.0,86,0.00,,,0.00,WUHU216HW,2015-03-26 14:05:00,
2015-03-26 10:10:00,49.9,45.8,29.79,North,0,0.0,0.0,86,0.00,,,0.00,WUHU216HW,2015-03-26 14:10:00,
2015-03-26 10:15:00,50.0,45.9,29.79,North,0,0.0,0.0,86,0.00,,,0.00,WUHU216HW,2015-03-26 14:15:00,
2015-03-26 10:20:00,50.2,46.1,29.79,North,0,0.0,0.0,86,0.00,,,0.00,WUHU216HW,2015-03-26 14:20:00,
2015-03-26 10:25:00,50.2,45.8,29.78,North,0,0.0,0.0,85,0.00,,,0.00,WUHU216HW,2015-03-26 14:25:00,
2015-03-26 10:30:00,50.6,46.2,29.78,North,0,0.0,0.0,85,0.00,,,0.00,WUHU216HW,2015-03-26 14:30:00,
2015-03-26 10:35:00,50.8,46.1,29.78,North,0,0.0,0.0,84,0.00,,,0.00,WUHU216HW,2015-03-26 14:35:00,
2015-03-26 10:40:00,50.6,45.5,29.77,North,0,0.0,0.0,83,0.00,,,0.00,WUHU216HW,2015-03-26 14:40:00,
2015-03-26 10:45:00,50.8,45.7,29.77,North,0,0.0,0.0,83,0.00,,,0.00,WUHU216HW,2015-03-26 14:45:00,
2015-03-26 10:50:00,50.9,45.6,29.77,North,0,0.0,0.0,82,0.00,,,0.00,WUHU216HW,2015-03-26 14:50:00,
2015-03-26 10:55:00,50.4,45.1,29.77,North,0,0.0,0.0,82,0.00,,,0.00,WUHU216HW,2015-03-26 14:55:00,
2015-03-26 11:00:00,50.4,45.4,29.77,North,0,0.0,0.0,83,0.00,,,0.00,WUHU216HW,2015-03-26 15:00:00,
2015-03-26 11:05:00,50.4,45.4,29.78,North,0,0.0,0.0,83,0.00,,,0.00,WUHU216HW,2015-03-26 15:05:00,
2015-03-26 11:10:00,50.2,45.2,29.77,North,0,0.0,0.0,83,0.00,,,0.00,WUHU216HW,2015-03-26 15:10:00,
2015-03-26 11:15:00,50.4,45.4,29.77,North,0,0.0,0.0,83,0.00,,,0.00,WUHU216HW,2015-03-26 15:15:00,
2015-03-26 11:20:00,50.4,45.1,29.77,North,0,0.0,0.0,82,0.00,,,0.00,WUHU216HW,2015-03-26 15:20:00,
2015-03-26 11:25:00,50.0,44.7,29.77,North,0,0.0,0.0,82,0.00,,,0.00,WUHU216HW,2015-03-26 15:25:00,
2015-03-26 11:30:00,49.9,44.6,29.77,North,0,0.0,0.0,82,0.00,,,0.00,WUHU216HW,2015-03-26 15:30:00,
2015-03-26 11:35:00,49.7,44.6,29.76,North,0,0.0,0.0,83,0.00,,,0.00,WUHU216HW,2015-03-26 15:35:00,
2015-03-26 11:40:00,49.7,44.6,29.76,North,0,0.0,0.0,83,0.00,,,0.00,WUHU216HW,2015-03-26 15:40:00,
2015-03-26 11:45:00,49.7,44.6,29.76,North,0,0.0,0.0,83,0.00,,,0.00,WUHU216HW,2015-03-26 15:45:00,
2015-03-26 11:50:00,49.7,45.0,29.76,North,0,0.0,0.0,84,0.00,,,0.00,WUHU216HW,2015-03-26 15:50:00,
2015-03-26 11:55:00,49.5,44.5,29.76,North,0,0.0,0.0,83,0.00,,,0.00,WUHU216HW,2015-03-26 15:55:00,
2015-03-26 12:00:00,49.3,44.3,29.76,North,0,0.0,0.0,83,0.00,,,0.00,WUHU216HW,2015-03-26 16:00:00,
2015-03-26 12:05:00,48.8,44.1,29.76,North,0,0.0,0.0,84,0.00,,,0.00,WUHU216HW,2015-03-26 16:05:00,
2015-03-26 12:10:00,48.4,44.1,29.76,North,0,0.0,0.0,85,0.00,,,0.00,WUHU216HW,2015-03-26 16:10:00,
2015-03-26 12:15:00,48.1,43.7,29.76,North,0,0.0,0.0,85,0.00,,,0.00,WUHU216HW,2015-03-26 16:15:00,
2015-03-26 12:20:00,47.9,43.9,29.76,North,0,0.0,0.0,86,0.00,,,0.00,WUHU216HW,2015-03-26 16:20:00,
2015-03-26 12:25:00,47.7,44.0,29.76,North,0,0.0,0.0,87,0.00,,,0.00,WUHU216HW,2015-03-26 16:25:00,
2015-03-26 12:30:00,47.5,43.8,29.76,North,0,0.0,0.0,87,0.00,,,0.00,WUHU216HW,2015-03-26 16:30:00,
2015-03-26 12:35:00,47.2,43.6,29.76,North,0,0.0,0.0,87,0.00,,,0.00,WUHU216HW,2015-03-26 16:35:00,
2015-03-26 12:40:00,46.8,43.5,29.75,North,0,0.0,0.0,88,0.00,,,0.00,WUHU216HW,2015-03-26 16:40:00,
2015-03-26 12:45:00,46.8,43.5,29.74,North,0,0.0,0.0,88,0.00,,,0.00,WUHU216HW,2015-03-26 16:45:00,
2015-03-26 12:50:00,46.8,43.5,29.75,North,0,0.0,0.0,88,0.00,,,0.00,WUHU216HW,2015-03-26 16:50:00,
2015-03-26 12:55:00,46.4,43.1,29.75,North,0,0.0,0.0,88,0.00,,,0.00,WUHU216HW,2015-03-26 16:55:00,
2015-03-26 13:00:00,46.6,43.3,29.75,North,0,0.0,0.0,88,0.00,,,0.00,WUHU216HW,2015-03-26 17:00:00,
2015-03-26 13:05:00,46.3,42.9,29.75,North,0,0.0,0.0,88,0.00,,,0.00,WUHU216HW,2015-03-26 17:05:00,
2015-03-26 13:10:00,46.1,42.8,29.76,North,0,0.0,0.0,88,0.00,,,0.00,WUHU216HW,2015-03-26 17:10:00,
2015-03-26 13:15:00,45.7,42.4,29.76,North,0,0.0,0.0,88,0.00,,,0.00,WUHU216HW,2015-03-26 17:15:00,
2015-03-26 13:20:00,45.5,42.2,29.76,North,0,0.0,0.0,88,0.00,,,0.00,WUHU216HW,2015-03-26 17:20:00,
2015-03-26 13:25:00,45.5,42.2,29.76,North,0,0.0,0.0,88,0.00,,,0.00,WUHU216HW,2015-03-26 17:25:00,
2015-03-26 13:30:00,45.5,42.2,29.76,North,0,0.0,0.0,88,0.00,,,0.00,WUHU216HW,2015-03-26 17:30:00,
2015-03-26 13:35:00,45.4,42.0,29.76,North,0,0.0,0.0,88,0.00,,,0.00,WUHU216HW,2015-03-26 17:35:00,
2015-03-26 13:40:00,45.0,41.7,29.76,North,0,0.0,0.0,88,0.00,,,0.00,WUHU216HW,2015-03-26 17:40:00,
2015-03-26 13:45:00,45.0,41.7,29.76,North,0,0.0,0.0,88,0.00,,,0.00,WUHU216HW,2015-03-26 17:45:00,
2015-03-26 13:50:00,44.8,41.5,29.77,North,0,0.0,0.0,88,0.00,,,0.00,WUHU216HW,2015-03-26 17:50:00,
2015-03-26 13:55:00,44.5,41.1,29.77,North,0,0.0,0.0,88,0.00,,,0.00,WUHU216HW,2015-03-26 17:55:00,
2015-03-26 14:00:00,44.5,41.1,29.77,North,0,0.0,0.0,88,0.00,,,0.00,WUHU216HW,2015-03-26 18:00:00,
2015-03-26 14:05:00,44.5,41.1,29.76,North,0,0.0,0.0,88,0.00,,,0.00,WUHU216HW,2015-03-26 18:05:00,
2015-03-26 14:10:00,44.5,41.1,29.76,North,0,0.0,0.0,88,0.00,,,0.00,WUHU216HW,2015-03-26 18:10:00,
2015-03-26 14:15:00,44.5,41.1,29.76,North,0,0.0,0.0,88,0.00,,,0.00,WUHU216HW,2015-03-26 18:15:00,
2015-03-26 14:20:00,44.3,41.0,29.76,North,0,0.0,0.0,88,0.00,,,0.00,WUHU216HW,2015-03-26 18:20:00,
2015-03-26 14:25:00,44.3,41.0,29.76,North,0,0.0,0.0,88,0.00,,,0.00,WUHU216HW,2015-03-26 18:25:00,
2015-03-26 14:30:00,44.3,41.0,29.77,North,0,0.0,0.0,88,0.00,,,0.00,WUHU216HW,2015-03-26 18:30:00,
2015-03-26 14:35:00,44.3,41.0,29.77,North,0,0.0,0.0,88,0.00,,,0.00,WUHU216HW,2015-03-26 18:35:00,
2015-03-26 14:39:00,44.3,41.0,29.76,North,0,0.0,0.0,88,0.00,,,0.00,WUHU216HW,2015-03-26 18:39:00,
2015-03-26 14:44:00,44.1,40.8,29.76,North,0,0.0,0.0,88,0.00,,,0.00,WUHU216HW,2015-03-26 18:44:00,
2015-03-26 14:49:00,44.3,41.3,29.76,North,0,0.0,0.0,89,0.00,,,0.00,WUHU216HW,2015-03-26 18:49:00,
2015-03-26 14:54:00,44.3,41.3,29.76,North,0,0.0,0.0,89,0.00,,,0.00,WUHU216HW,2015-03-26 18:54:00,
2015-03-26 14:59:00,44.3,41.3,29.76,North,0,0.0,0.0,89,0.00,,,0.00,WUHU216HW,2015-03-26 18:59:00,
2015-03-26 15:04:00,44.3,41.3,29.77,North,0,0.0,0.0,89,0.00,,,0.00,WUHU216HW,2015-03-26 19:04:00,
2015-03-26 15:09:00,44.3,41.3,29.77,North,0,0.0,0.0,89,0.00,,,0.00,WUHU216HW,2015-03-26 19:09:00,
2015-03-26 15:14:00,44.3,41.3,29.77,North,0,0.0,0.0,89,0.00,,,0.00,WUHU216HW,2015-03-26 19:14:00,
2015-03-26 15:19:00,44.3,41.0,29.77,North,0,0.0,0.0,88,0.00,,,0.00,WUHU216HW,2015-03-26 19:19:00,
2015-03-26 15:24:00,44.3,41.0,29.77,North,0,0.0,0.0,88,0.00,,,0.00,WUHU216HW,2015-03-26 19:24:00,
2015-03-26 15:29:00,44.3,41.0,29.78,North,0,0.0,0.0,88,0.00,,,0.00,WUHU216HW,2015-03-26 19:29:00,
2015-03-26 15:34:00,44.3,41.0,29.78,North,0,0.0,0.0,88,0.00,,,0.00,WUHU216HW,2015-03-26 19:34:00,
2015-03-26 15:39:00,44.1,41.1,29.77,North,0,0.0,0.0,89,0.00,,,0.00,WUHU216HW,2015-03-26 19:39:00,
2015-03-26 15:44:00,43.9,41.0,29.77,North,0,0.0,0.0,89,0.00,,,0.00,WUHU216HW,2015-03-26 19:44:00,
2015-03-26 15:49:00,44.1,41.1,29.78,North,0,0.0,0.0,89,0.00,,,0.00,WUHU216HW,2015-03-26 19:49:00,
2015-03-26 15:54:00,43.9,40.6,29.78,North,0,0.0,0.0,88,0.00,,,0.00,WUHU216HW,2015-03-26 19:54:00,
2015-03-26 15:59:00,43.9,40.6,29.78,North,0,0.0,0.0,88,0.00,,,0.00,WUHU216HW,2015-03-26 19:59:00,
2015-03-26 16:04:00,43.6,40.2,29.78,North,0,0.0,0.0,88,0.00,,,0.00,WUHU216HW,2015-03-26 20:04:00,
2015-03-26 16:09:00,43.6,40.2,29.78,North,0,0.0,0.0,88,0.00,,,0.00,WUHU216HW,2015-03-26 20:09:00,
2015-03-26 16:14:00,43.4,40.1,29.79,North,0,0.0,0.0,88,0.00,,,0.00,WUHU216HW,2015-03-26 20:14:00,
2015-03-26 16:19:00,43.6,40.2,29.79,North,0,0.0,0.0,88,0.00,,,0.00,WUHU216HW,2015-03-26 20:19:00,
2015-03-26 16:24:00,43.6,40.2,29.80,North,0,0.0,0.0,88,0.00,,,0.00,WUHU216HW,2015-03-26 20:24:00,
2015-03-26 16:29:00,43.7,40.4,29.80,North,0,0.0,0.0,88,0.00,,,0.00,WUHU216HW,2015-03-26 20:29:00,
2015-03-26 16:34:00,43.7,40.4,29.80,North,0,0.0,0.0,88,0.00,,,0.00,WUHU216HW,2015-03-26 20:34:00,
2015-03-26 16:39:00,43.6,40.2,29.80,North,0,0.0,0.0,88,0.00,,,0.00,WUHU216HW,2015-03-26 20:39:00,
2015-03-26 16:44:00,43.4,40.1,29.79,North,0,0.0,0.0,88,0.00,,,0.00,WUHU216HW,2015-03-26 20:44:00,
2015-03-26 16:49:00,43.4,40.1,29.80,North,0,0.0,0.0,88,0.00,,,0.00,WUHU216HW,2015-03-26 20:49:00,
2015-03-26 16:54:00,43.4,40.1,29.80,North,0,0.0,0.0,88,0.00,,,0.00,WUHU216HW,2015-03-26 20:54:00,
2015-03-26 16:59:00,43.4,40.1,29.80,North,0,0.0,0.0,88,0.00,,,0.00,WUHU216HW,2015-03-26 20:59:00,
2015-03-26 17:04:00,43.4,40.1,29.80,North,0,0.0,0.0,88,0.00,,,0.00,WUHU216HW,2015-03-26 21:04:00,
2015-03-26 17:09:00,43.4,40.1,29.80,North,0,0.0,0.0,88,0.00,,,0.00,WUHU216HW,2015-03-26 21:09:00,
2015-03-26 17:14:00,43.6,40.2,29.80,North,0,0.0,0.0,88,0.00,,,0.00,WUHU216HW,2015-03-26 21:14:00,
2015-03-26 17:19:00,43.6,40.2,29.80,North,0,0.0,0.0,88,0.00,,,0.00,WUHU216HW,2015-03-26 21:19:00,
2015-03-26 17:24:00,43.4,40.1,29.80,North,0,0.0,0.0,88,0.00,,,0.00,WUHU216HW,2015-03-26 21:24:00,
2015-03-26 17:29:00,43.4,40.1,29.81,North,0,0.0,0.0,88,0.00,,,0.00,WUHU216HW,2015-03-26 21:29:00,
2015-03-26 17:34:00,43.2,39.6,29.81,North,0,0.0,0.0,87,0.00,,,0.00,WUHU216HW,2015-03-26 21:34:00,
2015-03-26 17:39:00,43.2,39.6,29.81,North,0,0.0,0.0,87,0.00,,,0.00,WUHU216HW,2015-03-26 21:39:00,
2015-03-26 17:44:00,43.2,39.6,29.81,North,0,0.0,0.0,87,0.00,,,0.00,WUHU216HW,2015-03-26 21:44:00,
2015-03-26 17:49:00,43.2,39.6,29.81,North,0,0.0,0.0,87,0.00,,,0.00,WUHU216HW,2015-03-26 21:49:00,
2015-03-26 17:54:00,43.2,39.6,29.81,North,0,0.0,0.0,87,0.00,,,0.00,WUHU216HW,2015-03-26 21:54:00,
2015-03-26 17:59:00,43.2,39.6,29.81,North,0,0.0,0.0,87,0.00,,,0.00,WUHU216HW,2015-03-26 21:59:00,
2015-03-26 18:04:00,43.2,39.6,29.81,North,0,0.0,0.0,87,0.00,,,0.00,WUHU216HW,2015-03-26 22:04:00,
2015-03-26 18:09:00,43.0,39.4,29.82,North,0,0.0,0.0,87,0.00,,,0.00,WUHU216HW,2015-03-26 22:09:00,
2015-03-26 18:14:00,42.8,39.3,29.82,North,0,0.0,0.0,87,0.00,,,0.00,WUHU216HW,2015-03-26 22:14:00,
2015-03-26 18:19:00,42.8,39.3,29.81,North,0,0.0,0.0,87,0.00,,,0.00,WUHU216HW,2015-03-26 22:19:00,
2015-03-26 18:24:00,42.8,39.3,29.82,North,0,0.0,0.0,87,0.00,,,0.00,WUHU216HW,2015-03-26 22:24:00,
2015-03-26 18:29:00,42.8,39.3,29.82,North,0,0.0,0.0,87,0.00,,,0.00,WUHU216HW,2015-03-26 22:29:00,
2015-03-26 18:34:00,42.8,39.3,29.81,North,0,0.0,0.0,87,0.00,,,0.00,WUHU216HW,2015-03-26 22:34:00,
2015-03-26 18:39:00,42.8,39.3,29.81,North,0,0.0,0.0,87,0.00,,,0.00,WUHU216HW,2015-03-26 22:39:00,